| Date | Time | Temp. (oF) | Dew Point (oF) | Rel. Hum. (%) | Press. (in.) | Wind Dir. (deg.) | Wind Speed (mph) | Hourly Rainfall (i n.) |
|
|---|---|---|---|---|---|---|---|---|---|
| 1 | 11/23 | 24:00 | 57 | 54 | 91 | 30.42 | 130 | 0 | 0.00 |
| 2 | 11/22 | 23:00 | 57 | 53 | 89 | 30.43 | 130 | 0 | 0.00 |
| 3 | 11/22 | 22:00 | 58 | 55 | 90 | 30.43 | 130 | 0 | 0.00 |
| 4 | 11/22 | 21:00 | 59 | 55 | 89 | 30.40 | 130 | 0 | 0.00 |
| 5 | 11/22 | 20:00 | 58 | 54 | 89 | 30.40 | 130 | 0 | 0.00 |
| 6 | 11/22 | 19:00 | 59 | 54 | 85 | 30.40 | 140 | 0 | 0.00 |
| 7 | 11/22 | 18:00 | 59 | 54 | 84 | 30.43 | 100 | 1 | 0.00 |
| 8 | 11/22 | 17:00 | 58 | 54 | 87 | 30.43 | 60 | 0 | 0.00 |
| 9 | 11/22 | 16:00 | 61 | 55 | 82 | 30.42 | 60 | 0 | 0.00 |
| 10 | 11/22 | 15:00 | 61 | 56 | 84 | 30.41 | 90 | 1 | 0.00 |
| 11 | 11/22 | 14:00 | 61 | 56 | 84 | 30.40 | 90 | 0 | 0.00 |
| 12 | 11/22 | 13:00 | 60 | 56 | 87 | 30.40 | 90 | 0 | 0.00 |
| 13 | 11/22 | 12:00 | 57 | 54 | 91 | 30.41 | 90 | 0 | 0.00 |
| 14 | 11/22 | 11:00 | 57 | 54 | 91 | 30.43 | 90 | 0 | 0.00 |
| 15 | 11/22 | 10:00 | 55 | 53 | 93 | 30.43 | 90 | 0 | 0.00 |
| 16 | 11/22 | 09:00 | 53 | 51 | 94 | 30.37 | 90 | 0 | 0.00 |
| 17 | 11/22 | 08:00 | 51 | 49 | 94 | 30.37 | 150 | 0 | 0.01 |
| 18 | 11/22 | 07:00 | 49 | 47 | 94 | 30.35 | 150 | 0 | 0.00 |
| 19 | 11/22 | 06:00 | 49 | 47 | 93 | 30.34 | 150 | 0 | 0.00 |
| 20 | 11/22 | 05:00 | 48 | 46 | 93 | 30.33 | 150 | 0 | 0.00 |
| 21 | 11/22 | 04:00 | 48 | 46 | 93 | 30.32 | 150 | 0 | 0.00 |
| 22 | 11/22 | 03:00 | 47 | 43 | 89 | 30.30 | 150 | 0 | 0.00 |
| 23 | 11/22 | 02:00 | 46 | 42 | 88 | 30.30 | 150 | 0 | 0.00 |
| 24 | 11/22 | 01:00 | 47 | 43 | 88 | 30.29 | 150 | 0 | 0.00 |